Warning: Javascript must be enabled to use all the features on this page!


Page Loading - Please Wait...

Click to hideNews Bulletins

Peak Streamflow for the Nation

USGS 10243700 CLEVE CK NR ELY, NV

White Pine County, Nevada
Hydrologic Unit Code 16060008
Latitude  39°12'59.68", Longitude 114°31'46.7" NAD83
Drainage area 31.8  square miles
Gage datum 6,191.76 feet above NAVD88
Output formats
Table
Graph
Tab-separated file
peakfq (watstore) format
Reselect output format
Water
Year
Date Gage
Height
(feet)
Stream-
flow
(cfs)
1914 1914-06-03 1.403 44.01
1915 1915-06-08 1.253 30.01
1916 1916-05-09 1.223 32.01
1960 1960-05-15 2.026 13.0
1961 1961-08-24 2.482 56.0
1962 1962-04-15 2.182 39.0
1963 1963-06-13 2.312 56.0
1964 1964-05-20 2.122 38.0
1965 1965-05-20 2.042 32.0
1966 1966-05-09 1.842 16.0
1967 1967-06-13 2.692 125
1968 1968-06 2.10Bd 37.0Bd
1969 1969-05 2.52Bd 90.0Bd
1970 1970-08 3.06Bd 100Bd
1971 1971-07-17 2.21 42.0
1972 1972 1.75Bm 11.0Bm
1973 1973-01-19 3.37 80.0
1974 1974-01-30 3.29 70.0
1975 1975-06 3.11Bd 70.0Bd
1976 1976-05 2.65Bd 30.0Bd
1977 1977-06-04 2.552 25.0
1978 1978-05-16 3.202 69.0
1979 1979-05-29 2.912 43.0
1980 1980-05-23 3.22 67.0
1981 1981-06-02 2.71 23.0
1983 1983-05-30   440
1984 1984-05-14 1.112,3 189
1985 1985-04-15 2.643 30.0
1986 1986-05-04 4.623 35.0
1987 1987-08-08 2.046 26.0
1990 1990-06-11 1.67 12.0
1991 1991-06-05 2.24 42.0
1992 1992-05-01 1.562 9.50
1993 1993-05-21 2.04 45.0
1994 1994-05-16 1.80 16.0
1995 1995-06-06 2.63 119
1996 1996-05-16 1.78 24.0
1997 1997-05-19 1.80 23.0
1998 1998-06-16 2.19 65.0
1999 1999-06-09 1.96 39.0
2000 2000-05-08 1.78 20.0
2001 2001-05-14 1.98 40.0
2002 2002-05-21 1.61 13.0
2003 2003-05-31 1.96 27.0
2004 2004-05-07 1.70 15.0
2005 2005-05-24 2.75 158
2006 2006-05-16 1.89 52.0
2007 2007-05-16 2.44 19.0
2008 2008-05-21 1.60 17.0
2009 2009-05-08 2.03 36.0
2010 2010-06-07 2.51 73.0
2011 2011-06-27 2.49 81.0
2012 2011-10-04 1.712 20.0
2013 2013-09-03 1.582 16.0
2014 2014-07-09 1.62 15.0
2015 2015-06-01 1.54 14.0
2016 2016-06-11 1.79 26.0
2017 2017-08-07 2.48 68.6
2018 2018-03-22 1.462 10.6
2019 2019-06-08 2.63 68.8
2020 2020-05-01 1.702 15.9
2021 2021-05-08 1.382 7.05
?
  Peak Gage-Height Qualification Codes.
?
  Peak Streamflow Qualification Codes.